Terminal Aerodrome Forecast
Issued by NWS Sioux Falls, SD

Home | Current Version | Previous Version | Graphics & Text | Print | Product List | Glossary On
Versions: 1 2 3 4 5 6 7 8 9 10 11 12 13 14 15 16 17 18
000
FTUS43 KFSD 212300
TAFHON
TAF
KHON 212340Z 2200/2224 34007KT P6SM SCT250
     FM220500 VRB03KT P6SM FEW100
     FM220900 VRB03KT 5SM BR SCT100
     FM221400 07005KT P6SM SCT100 BKN250
     FM222100 11005KT P6SM BKN110=

USA.gov is the U.S. government's official web portal to all federal, state and local government web resources and services.